Time;durP1;ratioP1;P1;durP2;ratioP2;P2;SDS_P1;SDS_P2;PMS_P1;PMS_P2;Temp;Humidity;BMP_temperature;BMP_pressure;BME280_temperature;BME280_humidity;BME280_pressure;Samples;Min_cycle;Max_cycle;Signal;HPM_P1;HPM_P2
2023/03/14 00:00:37;;;;;;;21.13;4.13;;;8.60;99.90;;;;;;5089293;28;20044;-79
2023/03/14 00:03:03;;;;;;;22.25;4.90;;;8.60;99.90;;;;;;5071578;28;20041;-79
2023/03/14 00:05:30;;;;;;;20.20;3.75;;;8.60;99.90;;;;;;5071827;28;20040;-78
2023/03/14 00:07:57;;;;;;;21.17;3.40;;;8.60;99.90;;;;;;5088131;28;20048;-79
2023/03/14 00:10:23;;;;;;;27.70;4.07;;;8.70;99.90;;;;;;5088271;28;20040;-78
2023/03/14 00:12:50;;;;;;;20.63;4.25;;;8.70;99.90;;;;;;5072035;28;20094;-78
2023/03/14 00:15:17;;;;;;;17.85;3.22;;;8.70;99.90;;;;;;5071933;28;20037;-79
2023/03/14 00:17:44;;;;;;;22.75;3.83;;;8.80;99.90;;;;;;5071455;28;20501;-79
2023/03/14 00:20:11;;;;;;;24.85;3.88;;;8.80;99.90;;;;;;5122087;28;20054;-79
2023/03/14 00:22:39;;;;;;;18.52;3.28;;;8.90;99.90;;;;;;5070996;28;20095;-80
2023/03/14 00:25:08;;;;;;;17.02;3.10;;;8.90;99.90;;;;;;5088291;28;20029;-79
2023/03/14 00:27:35;;;;;;;24.48;3.10;;;8.90;99.90;;;;;;5121413;28;20044;-79
2023/03/14 00:30:02;;;;;;;21.52;3.30;;;9.00;99.90;;;;;;5087576;28;20110;-79
2023/03/14 00:32:29;;;;;;;21.67;3.30;;;9.00;99.90;;;;;;5087850;28;20044;-79
2023/03/14 00:34:56;;;;;;;20.30;3.20;;;9.10;99.90;;;;;;5104533;28;20481;-78
2023/03/14 00:37:22;;;;;;;28.40;4.10;;;9.20;99.90;;;;;;5087729;28;20146;-79
2023/03/14 00:39:51;;;;;;;24.00;3.42;;;9.30;99.90;;;;;;5071056;28;20037;-79
2023/03/14 00:42:18;;;;;;;14.43;3.72;;;9.30;99.90;;;;;;5087354;28;20048;-79
2023/03/14 00:44:45;;;;;;;17.50;3.30;;;9.40;99.90;;;;;;5087445;28;20041;-79
2023/03/14 00:47:12;;;;;;;26.23;3.78;;;9.40;99.90;;;;;;5070981;28;20517;-79
2023/03/14 00:49:38;;;;;;;19.88;3.45;;;9.50;99.90;;;;;;5071071;28;20437;-79
2023/03/14 00:52:05;;;;;;;26.30;3.53;;;9.50;99.90;;;;;;5068714;28;20029;-79
2023/03/14 00:54:32;;;;;;;20.52;3.45;;;9.70;99.90;;;;;;5087304;28;20132;-79
2023/03/14 00:56:58;;;;;;;19.98;3.22;;;9.60;99.90;;;;;;5070082;28;20509;-79
2023/03/14 00:59:25;;;;;;;21.13;3.58;;;9.80;99.90;;;;;;5086747;28;20489;-79
2023/03/14 01:01:52;;;;;;;14.75;2.97;;;9.80;99.90;;;;;;5037610;28;20041;-79
2023/03/14 01:04:18;;;;;;;27.50;4.28;;;9.80;99.90;;;;;;5037862;28;20106;-79
2023/03/14 01:06:45;;;;;;;19.65;2.85;;;9.80;99.90;;;;;;5070499;28;20044;-79
2023/03/14 01:09:12;;;;;;;22.77;4.43;;;9.80;99.90;;;;;;5053834;28;20052;-79
2023/03/14 01:11:39;;;;;;;18.08;3.30;;;9.70;99.90;;;;;;5087195;28;20495;-78
2023/03/14 01:14:05;;;;;;;18.58;3.08;;;9.70;99.90;;;;;;5086085;28;20069;-79
2023/03/14 01:16:34;;;;;;;18.85;3.55;;;9.80;99.90;;;;;;5086544;28;20045;-78
2023/03/14 01:19:02;;;;;;;18.23;4.10;;;9.80;99.90;;;;;;5086756;28;20040;-78
2023/03/14 01:21:31;;;;;;;22.10;3.95;;;9.80;99.90;;;;;;5087033;28;20119;-78
2023/03/14 01:24:00;;;;;;;16.98;3.63;;;9.80;99.90;;;;;;5103700;28;20040;-78
2023/03/14 01:26:31;;;;;;;15.82;3.38;;;9.80;99.90;;;;;;5103380;28;20409;-78
2023/03/14 01:28:58;;;;;;;16.42;3.17;;;9.80;99.90;;;;;;5069710;28;20029;-79
2023/03/14 01:31:25;;;;;;;18.45;3.47;;;9.80;99.90;;;;;;5086616;28;20378;-79
2023/03/14 01:33:52;;;;;;;12.23;3.08;;;9.80;99.90;;;;;;5069580;28;20098;-79
2023/03/14 01:36:19;;;;;;;18.50;3.45;;;9.80;99.90;;;;;;5086344;28;20123;-79
2023/03/14 01:38:46;;;;;;;16.65;3.75;;;9.80;99.90;;;;;;5086281;28;20047;-79
2023/03/14 01:41:16;;;;;;;13.57;3.83;;;9.80;99.90;;;;;;5086194;28;20494;-79
2023/03/14 01:43:43;;;;;;;12.90;3.35;;;9.80;99.90;;;;;;5103364;28;20088;-78
2023/03/14 01:46:39;;;;;;;16.77;3.70;;;9.80;99.90;;;;;;5069368;28;20084;-79
2023/03/14 01:49:12;;;;;;;17.80;3.90;;;9.70;99.90;;;;;;5072397;28;20098;-79
2023/03/14 01:52:06;;;;;;;16.60;3.67;;;9.80;99.90;;;;;;5069478;28;20131;-79
2023/03/14 01:54:41;;;;;;;16.38;4.30;;;9.70;99.90;;;;;;5069195;28;20061;-79
2023/03/14 01:57:18;;;;;;;18.38;3.97;;;9.70;99.90;;;;;;5085629;28;20037;-79
2023/03/14 01:59:57;;;;;;;14.43;3.80;;;9.70;99.90;;;;;;5069386;28;20036;-79
2023/03/14 02:02:27;;;;;;;16.58;3.88;;;9.70;99.90;;;;;;5102823;28;20094;-79
2023/03/14 02:04:55;;;;;;;14.77;3.92;;;9.70;99.90;;;;;;5086025;28;20092;-80
2023/03/14 02:07:36;;;;;;;13.23;3.60;;;9.70;99.90;;;;;;5069214;28;20175;-79
2023/03/14 02:10:05;;;;;;;15.38;3.67;;;9.80;99.90;;;;;;5068968;28;20552;-79
2023/03/14 02:12:32;;;;;;;20.40;3.72;;;9.80;99.90;;;;;;5069199;28;20786;-78
2023/03/14 02:14:58;;;;;;;18.30;4.03;;;9.80;99.90;;;;;;5068980;28;20048;-79
2023/03/14 02:17:25;;;;;;;14.82;3.72;;;9.90;99.90;;;;;;5086220;28;20045;-79
2023/03/14 02:19:55;;;;;;;13.82;3.28;;;9.80;99.90;;;;;;5086244;28;20249;-78
2023/03/14 02:22:22;;;;;;;18.95;3.70;;;9.80;99.90;;;;;;5102726;28;20091;-78
2023/03/14 02:25:06;;;;;;;17.08;3.22;;;9.90;99.90;;;;;;5085496;28;20072;-79
2023/03/14 02:27:34;;;;;;;16.35;3.20;;;9.90;99.90;;;;;;5069279;28;20063;-79
2023/03/14 02:30:10;;;;;;;16.33;3.17;;;9.80;99.90;;;;;;5085593;28;20037;-78
2023/03/14 02:32:41;;;;;;;16.63;3.42;;;9.90;99.90;;;;;;5069562;28;20127;-79
2023/03/14 02:35:11;;;;;;;13.13;2.67;;;9.90;99.90;;;;;;5085887;28;20083;-78
2023/03/14 02:37:43;;;;;;;12.88;2.65;;;9.80;99.90;;;;;;5102378;28;20127;-78
2023/03/14 02:40:10;;;;;;;10.40;2.75;;;9.90;99.90;;;;;;5102099;28;20036;-78
2023/03/14 02:42:37;;;;;;;14.15;2.53;;;9.80;99.90;;;;;;5068735;28;20044;-78
2023/03/14 02:45:10;;;;;;;13.20;2.67;;;9.90;99.90;;;;;;5085117;28;20045;-78
2023/03/14 02:47:42;;;;;;;13.82;2.63;;;9.80;99.90;;;;;;5102272;28;20087;-79
2023/03/14 02:50:15;;;;;;;12.63;2.95;;;9.80;99.90;;;;;;5118226;28;20056;-78
2023/03/14 02:52:42;;;;;;;12.13;2.78;;;9.80;99.90;;;;;;5068933;28;20132;-78
2023/03/14 02:55:09;;;;;;;11.13;2.30;;;9.80;99.90;;;;;;5069002;28;20187;-79
2023/03/14 02:57:36;;;;;;;9.20;2.17;;;9.80;99.90;;;;;;5101846;28;20041;-79
2023/03/14 03:00:06;;;;;;;11.65;2.03;;;9.80;99.90;;;;;;5068370;28;20529;-79
2023/03/14 03:02:33;;;;;;;9.45;2.30;;;9.80;99.90;;;;;;5068729;28;20047;-78
2023/03/14 03:05:00;;;;;;;9.32;2.13;;;9.80;99.90;;;;;;5102391;28;20037;-78
2023/03/14 03:07:26;;;;;;;12.13;2.03;;;9.80;99.90;;;;;;5068460;28;20138;-78
2023/03/14 03:09:53;;;;;;;13.07;2.50;;;9.80;99.90;;;;;;5102153;28;20481;-79
2023/03/14 03:12:20;;;;;;;11.98;2.10;;;9.80;99.90;;;;;;5068047;28;20036;-78
2023/03/14 03:14:47;;;;;;;8.80;2.10;;;9.70;99.90;;;;;;5101777;28;20048;-78
2023/03/14 03:17:13;;;;;;;8.48;2.17;;;9.70;99.90;;;;;;5101727;28;20036;-79
2023/03/14 03:19:40;;;;;;;13.68;2.25;;;9.70;99.90;;;;;;5068393;28;20036;-78
2023/03/14 03:22:07;;;;;;;14.00;2.55;;;9.60;99.90;;;;;;5084887;28;20048;-79
2023/03/14 03:24:34;;;;;;;11.40;2.75;;;9.60;99.90;;;;;;5084869;28;20037;-79
2023/03/14 03:27:00;;;;;;;13.60;3.28;;;9.60;99.90;;;;;;5068421;28;20064;-79
2023/03/14 03:29:27;;;;;;;10.68;2.85;;;9.60;99.90;;;;;;5084963;28;20033;-79
2023/03/14 03:31:54;;;;;;;17.05;3.15;;;9.60;99.90;;;;;;5068238;28;20041;-78
2023/03/14 03:34:21;;;;;;;13.43;3.60;;;9.60;99.90;;;;;;5068211;28;20045;-79
2023/03/14 03:36:47;;;;;;;16.23;3.67;;;9.60;99.90;;;;;;5087195;28;20041;-78
2023/03/14 03:39:14;;;;;;;18.30;3.83;;;9.60;99.90;;;;;;5071940;28;20048;-78
2023/03/14 03:41:41;;;;;;;14.23;3.30;;;9.40;99.90;;;;;;5088716;28;20763;-78
2023/03/14 03:44:07;;;;;;;10.85;3.00;;;9.60;99.90;;;;;;5088146;28;20055;-79
2023/03/14 03:46:34;;;;;;;13.48;3.20;;;9.50;99.90;;;;;;5071778;28;20040;-78
2023/03/14 03:49:01;;;;;;;12.25;2.90;;;9.50;99.90;;;;;;5105426;28;20060;-78
2023/03/14 03:51:28;;;;;;;12.75;2.90;;;9.60;99.90;;;;;;5088368;28;20041;-78
2023/03/14 03:53:56;;;;;;;19.33;2.95;;;9.50;99.90;;;;;;5071552;28;20064;-78
2023/03/14 03:56:23;;;;;;;8.55;2.95;;;9.50;99.90;;;;;;5088273;28;20500;-79
2023/03/14 03:58:50;;;;;;;12.80;2.90;;;9.50;99.90;;;;;;5088128;28;20037;-78
2023/03/14 04:01:16;;;;;;;10.45;3.05;;;9.40;99.90;;;;;;5088137;28;20131;-78
2023/03/14 04:03:43;;;;;;;11.00;2.72;;;9.40;99.90;;;;;;5088639;28;20052;-79
2023/03/14 04:06:12;;;;;;;12.25;3.42;;;9.40;99.90;;;;;;5088231;28;20037;-80
2023/03/14 04:08:41;;;;;;;14.50;2.92;;;9.40;99.90;;;;;;5105077;28;20041;-78
2023/03/14 04:11:07;;;;;;;12.52;3.45;;;9.30;99.90;;;;;;5088217;28;20041;-78
2023/03/14 04:13:34;;;;;;;11.57;2.55;;;9.30;99.90;;;;;;5104804;28;20485;-78
2023/03/14 04:16:01;;;;;;;12.65;2.63;;;9.30;99.90;;;;;;5088428;28;20043;-78
2023/03/14 04:18:30;;;;;;;7.97;2.75;;;9.20;99.90;;;;;;5071397;28;20128;-78
2023/03/14 04:20:57;;;;;;;12.27;3.33;;;9.20;99.90;;;;;;5088217;28;20095;-78
2023/03/14 04:23:25;;;;;;;12.55;2.70;;;9.20;99.90;;;;;;5104400;28;20045;-78
2023/03/14 04:25:53;;;;;;;13.30;3.17;;;9.20;99.90;;;;;;5104661;28;20779;-78
2023/03/14 04:28:20;;;;;;;13.50;2.83;;;9.10;99.90;;;;;;5087537;28;20041;-78
2023/03/14 04:30:46;;;;;;;13.02;3.08;;;9.10;99.90;;;;;;5087712;28;20094;-78
2023/03/14 04:33:16;;;;;;;19.52;3.38;;;9.10;99.90;;;;;;5071013;28;20045;-80
2023/03/14 04:35:44;;;;;;;15.15;3.22;;;9.10;99.90;;;;;;5087631;28;20045;-78
2023/03/14 04:38:12;;;;;;;9.57;3.20;;;9.10;99.90;;;;;;5070655;28;20124;-78
2023/03/14 04:40:42;;;;;;;11.88;3.58;;;9.10;99.90;;;;;;5087425;28;20493;-78
2023/03/14 04:43:10;;;;;;;10.32;3.13;;;9.10;99.90;;;;;;5071134;28;20520;-78
2023/03/14 04:45:41;;;;;;;13.50;3.72;;;9.10;99.90;;;;;;5087447;28;20497;-78
2023/03/14 04:48:08;;;;;;;15.15;3.92;;;9.00;99.90;;;;;;5087486;28;20029;-78
2023/03/14 04:50:35;;;;;;;12.20;3.60;;;9.00;99.90;;;;;;5103883;28;20079;-78
2023/03/14 04:53:01;;;;;;;16.67;3.30;;;8.90;99.90;;;;;;5087201;28;20446;-79
2023/03/14 04:55:28;;;;;;;9.95;3.50;;;8.90;99.90;;;;;;5103979;28;20048;-79
2023/03/14 04:57:55;;;;;;;10.27;3.83;;;8.80;99.90;;;;;;5071120;28;20454;-78
2023/03/14 05:00:21;;;;;;;10.50;3.45;;;8.70;99.90;;;;;;5070438;28;20044;-78
2023/03/14 05:02:48;;;;;;;12.70;3.60;;;8.70;99.90;;;;;;5070674;28;20040;-78
2023/03/14 05:05:15;;;;;;;11.93;3.75;;;8.70;99.90;;;;;;5103910;28;20497;-78
2023/03/14 05:07:42;;;;;;;13.77;4.32;;;8.70;99.90;;;;;;5086764;28;20041;-79
2023/03/14 05:10:09;;;;;;;15.00;3.58;;;8.60;99.90;;;;;;5104140;28;20087;-78
2023/03/14 05:12:36;;;;;;;11.93;2.80;;;8.70;99.90;;;;;;5087237;28;20128;-78
2023/03/14 05:15:04;;;;;;;13.63;3.03;;;8.70;99.90;;;;;;5070371;28;20175;-78
2023/03/14 05:17:32;;;;;;;12.57;2.67;;;8.70;99.90;;;;;;5103045;28;20041;-78
2023/03/14 05:19:59;;;;;;;12.38;3.20;;;8.70;99.90;;;;;;5070661;28;20114;-78
2023/03/14 05:22:26;;;;;;;9.70;2.90;;;8.70;99.90;;;;;;5070134;28;20107;-79
2023/03/14 05:24:58;;;;;;;11.40;2.90;;;8.70;99.90;;;;;;5086769;28;20048;-79
2023/03/14 05:27:25;;;;;;;11.02;3.00;;;8.70;99.90;;;;;;5085607;28;20037;-78
2023/03/14 05:29:52;;;;;;;6.18;1.95;;;8.70;99.90;;;;;;5102944;28;20041;-78
2023/03/14 05:32:18;;;;;;;6.78;2.05;;;8.70;99.90;;;;;;5069548;28;20382;-78
2023/03/14 05:34:45;;;;;;;4.85;1.60;;;8.60;99.90;;;;;;5102559;28;20033;-78
2023/03/14 05:37:12;;;;;;;9.13;2.00;;;8.70;99.90;;;;;;5086578;28;20041;-79
2023/03/14 05:39:38;;;;;;;9.82;2.72;;;8.60;99.90;;;;;;5085930;28;20124;-79
2023/03/14 05:42:05;;;;;;;7.68;2.00;;;8.60;99.90;;;;;;5069510;28;20040;-78
2023/03/14 05:44:32;;;;;;;7.60;2.08;;;8.60;99.90;;;;;;5102152;28;20041;-79
2023/03/14 05:46:58;;;;;;;5.93;2.30;;;8.60;99.90;;;;;;5086229;28;20465;-79
2023/03/14 05:49:25;;;;;;;9.38;2.33;;;8.60;99.90;;;;;;5085701;28;20072;-79
2023/03/14 05:51:52;;;;;;;4.65;2.22;;;8.60;99.90;;;;;;5069648;28;20472;-79
2023/03/14 05:54:19;;;;;;;10.07;2.45;;;8.50;99.90;;;;;;5086009;28;20052;-79
2023/03/14 05:56:45;;;;;;;8.82;2.60;;;8.50;99.90;;;;;;5069232;28;20041;-79
2023/03/14 05:59:13;;;;;;;9.55;2.60;;;8.50;99.90;;;;;;5069508;28;20624;-79
2023/03/14 06:01:40;;;;;;;5.95;2.15;;;8.50;99.90;;;;;;5069317;28;20041;-79
2023/03/14 06:04:07;;;;;;;8.63;2.47;;;8.50;99.90;;;;;;5068671;28;20473;-79
2023/03/14 06:06:33;;;;;;;9.57;3.45;;;8.50;99.90;;;;;;5068957;28;20036;-79
2023/03/14 06:09:00;;;;;;;7.32;2.53;;;8.50;99.90;;;;;;5068970;28;20102;-79
2023/03/14 06:11:27;;;;;;;7.75;2.67;;;8.40;99.90;;;;;;5085855;28;20052;-79
2023/03/14 06:13:54;;;;;;;6.95;2.28;;;8.40;99.90;;;;;;5103072;28;20040;-79
2023/03/14 06:16:20;;;;;;;6.22;2.53;;;8.40;99.90;;;;;;5086421;28;20040;-79
2023/03/14 06:18:48;;;;;;;10.15;2.67;;;8.50;99.90;;;;;;5086185;28;20461;-79
2023/03/14 06:21:15;;;;;;;9.82;2.85;;;8.40;99.90;;;;;;5086700;28;20094;-79
2023/03/14 06:23:42;;;;;;;8.98;2.63;;;8.40;99.90;;;;;;5086079;28;20440;-79
2023/03/14 06:26:09;;;;;;;6.93;2.55;;;8.40;99.90;;;;;;5102651;28;20037;-79
2023/03/14 06:28:35;;;;;;;8.27;2.50;;;8.50;99.90;;;;;;5068958;28;20049;-79
2023/03/14 06:31:02;;;;;;;10.02;2.70;;;8.40;99.90;;;;;;5085664;28;20094;-79
2023/03/14 06:33:29;;;;;;;7.40;2.20;;;8.40;99.90;;;;;;5086079;28;20076;-79
2023/03/14 06:35:56;;;;;;;7.00;2.47;;;8.40;99.90;;;;;;5069320;28;20124;-79
2023/03/14 06:38:28;;;;;;;5.97;2.13;;;8.40;99.90;;;;;;5069980;28;20040;-78
2023/03/14 06:40:55;;;;;;;7.00;2.40;;;8.40;99.90;;;;;;5085762;28;20045;-79
2023/03/14 06:43:22;;;;;;;5.28;2.30;;;8.50;99.90;;;;;;5069357;28;20072;-79
2023/03/14 06:45:48;;;;;;;8.00;2.08;;;8.50;99.90;;;;;;5119276;28;20041;-79
2023/03/14 06:48:15;;;;;;;7.57;2.25;;;8.50;99.90;;;;;;5068863;28;20048;-78
2023/03/14 06:50:42;;;;;;;3.78;1.75;;;8.50;99.90;;;;;;5085621;28;20589;-79
2023/03/14 06:53:09;;;;;;;6.45;2.55;;;8.50;99.90;;;;;;5085623;28;20094;-79
2023/03/14 06:55:36;;;;;;;4.25;1.95;;;8.50;99.90;;;;;;5069070;28;20048;-79
2023/03/14 06:58:02;;;;;;;7.35;1.77;;;8.60;99.90;;;;;;5085546;28;20476;-79
2023/03/14 07:00:29;;;;;;;6.10;1.98;;;8.50;99.90;;;;;;5102810;28;20049;-79
2023/03/14 07:02:56;;;;;;;4.00;1.63;;;8.60;99.90;;;;;;5069358;28;20401;-79
2023/03/14 07:05:23;;;;;;;5.55;1.60;;;8.50;99.90;;;;;;5085683;28;20052;-79
2023/03/14 07:07:49;;;;;;;5.50;1.33;;;8.50;99.90;;;;;;5068786;28;20041;-79
2023/03/14 07:10:16;;;;;;;3.15;0.90;;;8.50;99.90;;;;;;5070389;28;20086;-79
2023/03/14 07:12:43;;;;;;;2.90;0.55;;;8.10;99.90;;;;;;5089689;28;20037;-80
2023/03/14 07:15:10;;;;;;;2.33;0.60;;;7.90;99.90;;;;;;5073771;28;20505;-79
2023/03/14 07:17:37;;;;;;;3.50;1.17;;;7.70;99.90;;;;;;5089420;28;20175;-80
2023/03/14 07:20:04;;;;;;;3.05;0.47;;;7.50;99.90;;;;;;5073521;28;20131;-79
2023/03/14 07:22:31;;;;;;;3.17;0.77;;;7.40;99.90;;;;;;5073160;28;20041;-79
2023/03/14 07:24:58;;;;;;;6.15;0.70;;;7.30;99.90;;;;;;5072686;28;20036;-79
2023/03/14 07:27:24;;;;;;;3.13;1.10;;;7.20;99.90;;;;;;5073094;28;20037;-79
2023/03/14 07:29:51;;;;;;;4.82;0.57;;;7.10;99.90;;;;;;5089224;28;20540;-79
2023/03/14 07:32:18;;;;;;;2.17;0.70;;;7.10;99.90;;;;;;5072944;28;20503;-79
2023/03/14 07:34:45;;;;;;;10.38;1.17;;;6.90;99.90;;;;;;5089632;28;20083;-79
2023/03/14 07:37:11;;;;;;;2.80;0.80;;;6.90;99.90;;;;;;5073146;28;20044;-80
2023/03/14 07:39:38;;;;;;;6.35;1.27;;;6.70;99.90;;;;;;5105850;28;20562;-80
2023/03/14 07:42:05;;;;;;;4.88;0.93;;;6.30;99.90;;;;;;5106505;28;20569;-80
2023/03/14 07:44:32;;;;;;;2.30;0.60;;;5.90;99.90;;;;;;5089407;28;20041;-79
2023/03/14 07:46:59;;;;;;;4.95;0.80;;;5.60;99.90;;;;;;5105810;28;20055;-79
2023/03/14 07:49:26;;;;;;;3.08;0.60;;;5.40;99.90;;;;;;5089365;28;20041;-80
2023/03/14 07:51:52;;;;;;;4.95;0.52;;;5.20;99.90;;;;;;5072392;28;20128;-80
2023/03/14 07:54:19;;;;;;;2.00;0.75;;;5.00;99.90;;;;;;5072751;28;20493;-80
2023/03/14 07:56:46;;;;;;;2.90;0.60;;;4.80;99.90;;;;;;5089186;28;20102;-80
2023/03/14 07:59:13;;;;;;;0.57;0.38;;;4.60;99.90;;;;;;5073127;28;20102;-80
2023/03/14 08:01:39;;;;;;;6.75;1.20;;;4.50;99.90;;;;;;5071842;28;20041;-80
2023/03/14 08:04:06;;;;;;;4.25;0.55;;;4.50;99.90;;;;;;5071728;28;20455;-79
2023/03/14 08:06:34;;;;;;;3.72;0.85;;;4.20;99.90;;;;;;5105384;28;20440;-80
2023/03/14 08:09:02;;;;;;;3.60;0.73;;;4.20;99.90;;;;;;5104944;28;20043;-79
2023/03/14 08:11:28;;;;;;;3.95;0.95;;;4.10;99.90;;;;;;5103066;28;20503;-80
2023/03/14 08:13:55;;;;;;;3.30;0.15;;;4.10;99.90;;;;;;5066272;28;20037;-79
2023/03/14 08:16:22;;;;;;;3.75;0.77;;;4.00;99.90;;;;;;5069488;28;20041;-79
2023/03/14 08:18:49;;;;;;;0.25;0.25;;;4.00;99.90;;;;;;5088017;28;20094;-79
2023/03/14 08:21:16;;;;;;;2.40;0.40;;;4.10;99.90;;;;;;5054774;28;20037;-79
2023/03/14 08:23:42;;;;;;;2.00;0.65;;;4.30;99.90;;;;;;5054913;28;20049;-79
2023/03/14 08:26:09;;;;;;;2.08;0.20;;;4.10;99.90;;;;;;5087723;28;20036;-78
2023/03/14 08:28:36;;;;;;;0.30;0.30;;;4.00;99.90;;;;;;5054793;28;20071;-78
2023/03/14 08:31:03;;;;;;;3.03;0.30;;;4.10;99.90;;;;;;5054157;28;20047;-77
2023/03/14 08:33:30;;;;;;;0.30;0.20;;;4.10;99.90;;;;;;5054849;28;20463;-77
2023/03/14 08:35:59;;;;;;;3.63;0.63;;;4.10;99.90;;;;;;5054605;28;20401;-78
2023/03/14 08:38:26;;;;;;;0.47;0.30;;;4.10;99.90;;;;;;5088092;28;20032;-77
2023/03/14 08:41:00;;;;;;;0.70;0.20;;;4.10;99.90;;;;;;5104191;28;20099;-77
2023/03/14 08:43:28;;;;;;;2.75;0.43;;;4.20;99.90;;;;;;5087874;28;20047;-78
2023/03/14 08:45:59;;;;;;;0.20;0.20;;;4.20;99.90;;;;;;5086707;28;20080;-79
2023/03/14 08:48:25;;;;;;;9.55;0.40;;;4.20;99.90;;;;;;5103778;28;20098;-78
2023/03/14 08:50:53;;;;;;;1.23;0.20;;;4.30;99.90;;;;;;5070281;28;20041;-79
2023/03/14 08:53:22;;;;;;;1.00;0.10;;;4.30;99.90;;;;;;5086931;28;20405;-79
2023/03/14 08:55:54;;;;;;;1.10;0.30;;;4.40;99.90;;;;;;5070234;28;20037;-79
2023/03/14 08:58:23;;;;;;;0.75;0.32;;;4.40;99.90;;;;;;5087780;28;20053;-79
2023/03/14 09:00:50;;;;;;;4.50;0.50;;;4.40;99.90;;;;;;5070685;28;20131;-79
2023/03/14 09:03:17;;;;;;;2.75;0.60;;;4.40;99.90;;;;;;5070748;28;20049;-79
2023/03/14 09:05:43;;;;;;;3.10;0.50;;;4.50;99.90;;;;;;5070497;28;20044;-79
2023/03/14 09:08:10;;;;;;;2.33;0.35;;;4.60;99.90;;;;;;5069789;28;20041;-79
2023/03/14 09:10:38;;;;;;;9.45;1.27;;;4.70;99.90;;;;;;5037390;28;20041;-79
2023/03/14 09:13:05;;;;;;;3.17;0.65;;;4.70;99.90;;;;;;5069737;28;20036;-78
2023/03/14 09:15:32;;;;;;;5.50;0.50;;;4.80;99.90;;;;;;5086915;28;20616;-78
2023/03/14 09:17:59;;;;;;;5.57;0.60;;;4.90;99.90;;;;;;5069933;28;20114;-78
2023/03/14 09:20:26;;;;;;;3.40;0.68;;;4.90;99.90;;;;;;5086913;28;20072;-79
2023/03/14 09:22:53;;;;;;;5.82;0.68;;;4.90;99.90;;;;;;5069973;28;20048;-80
2023/03/14 09:25:19;;;;;;;3.53;0.73;;;4.80;99.90;;;;;;5070388;28;20485;-78
2023/03/14 09:27:46;;;;;;;6.07;0.93;;;4.90;99.90;;;;;;5069739;28;20110;-79
2023/03/14 09:30:13;;;;;;;6.07;1.50;;;4.90;99.90;;;;;;5102484;28;20036;-79
2023/03/14 09:32:40;;;;;;;6.28;1.10;;;5.00;99.90;;;;;;5102868;28;20120;-79
2023/03/14 09:35:07;;;;;;;1.88;0.82;;;5.00;99.90;;;;;;5102459;28;20131;-79
2023/03/14 09:37:33;;;;;;;6.93;1.20;;;5.20;99.90;;;;;;5086156;28;20044;-78
2023/03/14 09:40:00;;;;;;;2.30;0.90;;;5.30;99.90;;;;;;5085725;28;20041;-79
2023/03/14 09:42:27;;;;;;;6.93;1.00;;;5.40;99.90;;;;;;5069576;28;20493;-78
2023/03/14 09:44:59;;;;;;;11.10;1.17;;;5.40;99.90;;;;;;5085587;28;20553;-79
2023/03/14 09:47:27;;;;;;;5.13;0.95;;;5.50;99.90;;;;;;5069959;28;20497;-79
2023/03/14 09:49:54;;;;;;;6.40;1.10;;;5.50;99.90;;;;;;5085651;28;20037;-79
2023/03/14 09:52:26;;;;;;;10.32;0.98;;;5.50;99.90;;;;;;5101985;28;20040;-79
2023/03/14 09:55:05;;;;;;;12.55;1.38;;;5.70;99.90;;;;;;5103005;28;20315;-79
2023/03/14 09:57:34;;;;;;;3.80;0.85;;;5.60;99.90;;;;;;5103350;28;20049;-79
2023/03/14 10:00:13;;;;;;;15.00;1.60;;;5.70;99.90;;;;;;5086499;28;20044;-79
2023/03/14 10:02:43;;;;;;;8.63;1.23;;;5.70;99.90;;;;;;5069472;28;20129;-79
2023/03/14 10:05:18;;;;;;;11.93;1.15;;;5.60;99.90;;;;;;5069601;28;20171;-79
2023/03/14 10:07:45;;;;;;;5.88;0.93;;;5.50;99.90;;;;;;5068775;28;20041;-79
2023/03/14 10:10:19;;;;;;;8.85;0.90;;;5.40;99.90;;;;;;5069162;28;20529;-80
2023/03/14 10:12:54;;;;;;;8.43;1.50;;;5.30;99.90;;;;;;5069445;28;20052;-79
2023/03/14 10:15:32;;;;;;;3.63;1.25;;;5.20;99.90;;;;;;5052331;28;20037;-79
2023/03/14 10:18:02;;;;;;;10.90;1.33;;;5.20;99.90;;;;;;5068818;28;20041;-79
2023/03/14 10:20:33;;;;;;;4.88;1.00;;;5.20;99.90;;;;;;5068697;28;20040;-79
2023/03/14 10:23:21;;;;;;;5.22;1.05;;;5.20;99.90;;;;;;5085350;28;20410;-79
2023/03/14 10:26:14;;;;;;;12.20;1.23;;;5.20;99.90;;;;;;5068489;28;20036;-79
2023/03/14 10:28:52;;;;;;;7.85;1.13;;;5.40;99.90;;;;;;5120882;28;20148;-79
2023/03/14 10:31:24;;;;;;;11.40;1.27;;;5.40;99.90;;;;;;5085627;28;20048;-78
2023/03/14 10:34:04;;;;;;;7.22;2.10;;;5.60;99.90;;;;;;5099410;28;20056;-79
2023/03/14 10:36:34;;;;;;;10.48;1.90;;;5.60;99.90;;;;;;5099672;28;20036;-79
2023/03/14 10:39:49;;;;;;;13.30;2.17;;;5.70;99.90;;;;;;5068296;28;20532;-79
2023/03/14 10:42:29;;;;;;;11.98;1.42;;;5.70;99.90;;;;;;5068061;28;20041;-79
2023/03/14 10:45:00;;;;;;;14.43;1.92;;;5.80;99.90;;;;;;5069008;28;20424;-78
2023/03/14 10:47:28;;;;;;;11.95;1.60;;;5.70;99.90;;;;;;5069205;28;20127;-79
2023/03/14 10:49:56;;;;;;;8.85;1.27;;;5.70;99.90;;;;;;5068992;28;20545;-79
2023/03/14 10:52:29;;;;;;;10.57;1.35;;;5.80;99.90;;;;;;5068046;28;20123;-79
2023/03/14 10:55:04;;;;;;;13.00;1.52;;;6.00;99.90;;;;;;5068666;28;20136;-78
2023/03/14 10:57:30;;;;;;;11.33;2.13;;;6.00;99.90;;;;;;5068074;28;20063;-78
2023/03/14 10:59:57;;;;;;;11.98;2.10;;;6.10;99.90;;;;;;5068085;28;20090;-79
2023/03/14 11:02:58;;;;;;;11.27;1.23;;;6.00;99.90;;;;;;5050916;28;20078;-78
2023/03/14 11:05:39;;;;;;;2.85;1.27;;;6.20;99.90;;;;;;5097701;28;20049;-78
2023/03/14 11:08:40;;;;;;;9.48;1.55;;;6.10;99.90;;;;;;5081246;28;20042;-78
2023/03/14 11:11:13;;;;;;;10.23;0.85;;;6.10;99.90;;;;;;5048230;28;20048;-79
2023/03/14 11:14:11;;;;;;;9.63;1.45;;;6.30;99.90;;;;;;5099745;28;20486;-79
2023/03/14 11:16:56;;;;;;;6.43;1.35;;;6.40;99.90;;;;;;5068663;28;20052;-78
2023/03/14 11:19:31;;;;;;;4.00;0.60;;;6.30;99.90;;;;;;5067927;28;20080;-78
2023/03/14 11:22:04;;;;;;;8.98;1.30;;;6.30;99.90;;;;;;5101963;28;20098;-79
2023/03/14 11:24:45;;;;;;;12.32;1.67;;;6.30;99.90;;;;;;5101541;28;20040;-79
2023/03/14 11:27:17;;;;;;;9.50;1.50;;;6.30;99.90;;;;;;5100802;28;20682;-79
2023/03/14 11:30:15;;;;;;;10.35;1.42;;;6.30;99.90;;;;;;5101417;28;20055;-79
2023/03/14 11:32:51;;;;;;;3.80;0.73;;;6.20;99.90;;;;;;5067793;28;20147;-79
2023/03/14 11:35:38;;;;;;;;;;;6.10;99.90;;;;;;5067821;28;20346;-79
2023/03/14 11:38:37;;;;;;;4.43;0.60;;;6.00;99.90;;;;;;5101005;28;20372;-79
2023/03/14 11:41:09;;;;;;;4.65;0.68;;;6.20;99.90;;;;;;5067674;28;20045;-80
2023/03/14 11:43:42;;;;;;;2.97;0.75;;;6.30;99.90;;;;;;5067769;28;20405;-78
2023/03/14 11:46:36;;;;;;;2.22;0.55;;;6.40;99.90;;;;;;5067626;28;20555;-79
2023/03/14 11:49:25;;;;;;;5.50;0.80;;;6.50;99.90;;;;;;5068021;28;20082;-78
2023/03/14 11:51:57;;;;;;;7.60;1.33;;;6.60;99.90;;;;;;5068143;28;20044;-78
2023/03/14 11:54:42;;;;;;;6.57;1.45;;;6.50;99.90;;;;;;5068369;28;20049;-78
2023/03/14 11:57:18;;;;;;;6.75;1.10;;;6.30;99.90;;;;;;5069015;28;20051;-78
2023/03/14 12:00:12;;;;;;;6.72;0.88;;;6.10;99.90;;;;;;5122193;28;20076;-78
2023/03/14 12:03:04;;;;;;;5.55;1.13;;;6.10;99.90;;;;;;5104896;28;20049;-78
2023/03/14 12:05:39;;;;;;;2.47;0.77;;;6.00;99.90;;;;;;5104313;28;20041;-78
2023/03/14 12:08:09;;;;;;;6.72;0.73;;;6.10;99.90;;;;;;5088202;28;20513;-80
2023/03/14 12:10:49;;;;;;;7.72;1.10;;;6.00;99.90;;;;;;5105105;28;20044;-78
2023/03/14 12:13:16;;;;;;;3.15;0.60;;;6.10;99.90;;;;;;5071063;28;20060;-78
2023/03/14 12:16:20;;;;;;;4.82;0.80;;;6.30;99.90;;;;;;5087437;28;20048;-78
2023/03/14 12:18:47;;;;;;;7.63;0.98;;;6.30;99.90;;;;;;5071321;28;20158;-78
2023/03/14 12:21:13;;;;;;;3.10;0.70;;;6.40;99.90;;;;;;5070880;28;20052;-78
2023/03/14 12:23:40;;;;;;;4.43;0.88;;;6.40;99.90;;;;;;5088248;28;20103;-78
2023/03/14 12:26:17;;;;;;;7.75;1.02;;;6.40;99.90;;;;;;5104312;28;20041;-78
2023/03/14 12:28:51;;;;;;;7.38;0.95;;;6.50;99.90;;;;;;5103959;28;20409;-78
2023/03/14 12:31:30;;;;;;;1.65;0.65;;;6.40;99.90;;;;;;5070415;28;20048;-78
2023/03/14 12:34:04;;;;;;;9.93;0.90;;;6.40;99.90;;;;;;5087323;28;20390;-78
2023/03/14 12:36:49;;;;;;;5.25;0.98;;;6.40;99.90;;;;;;5103429;28;20751;-78
2023/03/14 12:39:34;;;;;;;6.73;1.50;;;6.40;99.90;;;;;;5100884;28;20033;-79
2023/03/14 12:42:04;;;;;;;4.00;0.87;;;6.40;99.90;;;;;;5083786;28;20041;-78
2023/03/14 12:44:31;;;;;;;3.70;0.90;;;6.40;99.90;;;;;;5067109;28;20787;-78
2023/03/14 12:47:16;;;;;;;7.03;1.15;;;6.40;99.90;;;;;;5084239;28;20045;-78
2023/03/14 12:49:44;;;;;;;9.23;1.17;;;6.30;99.90;;;;;;5101033;28;20057;-78
2023/03/14 12:52:16;;;;;;;3.30;0.90;;;6.30;99.90;;;;;;5082837;28;20037;-78
2023/03/14 12:54:53;;;;;;;7.88;1.15;;;6.20;99.90;;;;;;5070486;28;20490;-78
2023/03/14 12:57:42;;;;;;;9.60;1.45;;;6.10;99.90;;;;;;5087101;28;20128;-78
2023/03/14 13:00:18;;;;;;;6.20;0.77;;;6.10;99.90;;;;;;5086914;28;20127;-78
2023/03/14 13:02:47;;;;;;;2.63;0.75;;;6.30;99.90;;;;;;5070375;28;20053;-79
2023/03/14 13:05:25;;;;;;;6.63;0.93;;;6.60;99.90;;;;;;5085513;28;20041;-80
2023/03/14 13:07:55;;;;;;;6.55;1.13;;;6.60;99.90;;;;;;5102980;28;20494;-79